Terminal Aerodrome Forecast
Issued by NWS Charleston, WV

Current Version | Previous Version | Graphics & Text | Print | Product List | Glossary On
Versions: 1 2 3 4 5 6 7 8 9 10 11 12 13 14 15 16 17 18 19 20 21 22 23
000
FTUS41 KRLX 292340
TAFCRW
TAF
KCRW 292340Z 3000/3024 15004KT P6SM SCT050
     FM300300 15004KT 6SM BR SCT050
     FM300600 15004KT 5SM BR FEW001 SCT050
     FM301200 VRB03KT 6SM BR BKN050
     FM301300 VRB03KT P6SM BKN050=

USA.gov is the U.S. government's official web portal to all federal, state and local government web resources and services.